sensor_id;sensor_type;location;lat;lon;timestamp;P1;durP1;ratioP1;P2;durP2;ratioP2
11699;SDS011;5906;51.660;6.674;2022-09-03T00:02:41;8.40;;;3.00;;
11699;SDS011;5906;51.660;6.674;2022-09-03T00:08:01;2.67;;;2.47;;
11699;SDS011;5906;51.660;6.674;2022-09-03T00:13:19;3.13;;;2.80;;
11699;SDS011;5906;51.660;6.674;2022-09-03T00:15:50;6.90;;;2.73;;
11699;SDS011;5906;51.660;6.674;2022-09-03T00:18:20;3.73;;;3.17;;
11699;SDS011;5906;51.660;6.674;2022-09-03T00:20:54;2.87;;;2.67;;
11699;SDS011;5906;51.660;6.674;2022-09-03T00:23:34;5.30;;;3.10;;
11699;SDS011;5906;51.660;6.674;2022-09-03T00:28:40;4.87;;;3.10;;
11699;SDS011;5906;51.660;6.674;2022-09-03T00:34:15;12.00;;;3.00;;
11699;SDS011;5906;51.660;6.674;2022-09-03T00:36:46;5.70;;;3.00;;
11699;SDS011;5906;51.660;6.674;2022-09-03T00:39:14;2.83;;;2.47;;
11699;SDS011;5906;51.660;6.674;2022-09-03T00:41:47;8.73;;;4.20;;
11699;SDS011;5906;51.660;6.674;2022-09-03T00:44:44;3.00;;;2.53;;
11699;SDS011;5906;51.660;6.674;2022-09-03T00:47:23;4.87;;;2.87;;
11699;SDS011;5906;51.660;6.674;2022-09-03T01:00:36;3.33;;;2.73;;
11699;SDS011;5906;51.660;6.674;2022-09-03T01:05:41;3.93;;;3.00;;
11699;SDS011;5906;51.660;6.674;2022-09-03T01:11:21;5.00;;;3.03;;
11699;SDS011;5906;51.660;6.674;2022-09-03T01:14:13;5.00;;;2.73;;
11699;SDS011;5906;51.660;6.674;2022-09-03T01:17:00;5.07;;;3.20;;
11699;SDS011;5906;51.660;6.674;2022-09-03T01:20:08;4.53;;;3.03;;
11699;SDS011;5906;51.660;6.674;2022-09-03T01:22:55;5.53;;;2.90;;
11699;SDS011;5906;51.660;6.674;2022-09-03T01:25:48;4.40;;;2.90;;
11699;SDS011;5906;51.660;6.674;2022-09-03T01:37:17;2.83;;;2.60;;
11699;SDS011;5906;51.660;6.674;2022-09-03T01:40:23;3.23;;;2.70;;
11699;SDS011;5906;51.660;6.674;2022-09-03T01:45:50;3.80;;;2.73;;
11699;SDS011;5906;51.660;6.674;2022-09-03T01:56:41;4.10;;;2.53;;
11699;SDS011;5906;51.660;6.674;2022-09-03T01:59:12;8.30;;;3.03;;
11699;SDS011;5906;51.660;6.674;2022-09-03T02:01:52;8.00;;;2.90;;
11699;SDS011;5906;51.660;6.674;2022-09-03T02:04:59;4.10;;;2.90;;
11699;SDS011;5906;51.660;6.674;2022-09-03T02:07:38;3.03;;;2.67;;
11699;SDS011;5906;51.660;6.674;2022-09-03T02:10:38;5.47;;;2.77;;
11699;SDS011;5906;51.660;6.674;2022-09-03T02:15:47;2.60;;;2.40;;
11699;SDS011;5906;51.660;6.674;2022-09-03T02:18:19;4.20;;;2.93;;
11699;SDS011;5906;51.660;6.674;2022-09-03T02:20:54;3.07;;;2.77;;
11699;SDS011;5906;51.660;6.674;2022-09-03T02:23:22;4.53;;;2.67;;
11699;SDS011;5906;51.660;6.674;2022-09-03T02:25:59;4.00;;;2.90;;
11699;SDS011;5906;51.660;6.674;2022-09-03T02:28:29;3.13;;;2.83;;
11699;SDS011;5906;51.660;6.674;2022-09-03T02:30:57;3.13;;;2.60;;
11699;SDS011;5906;51.660;6.674;2022-09-03T02:33:24;4.77;;;3.50;;
11699;SDS011;5906;51.660;6.674;2022-09-03T02:35:51;5.60;;;3.20;;
11699;SDS011;5906;51.660;6.674;2022-09-03T02:38:19;4.50;;;2.57;;
11699;SDS011;5906;51.660;6.674;2022-09-03T02:40:53;3.77;;;2.77;;
11699;SDS011;5906;51.660;6.674;2022-09-03T02:43:22;3.50;;;2.40;;
11699;SDS011;5906;51.660;6.674;2022-09-03T02:46:08;3.33;;;2.43;;
11699;SDS011;5906;51.660;6.674;2022-09-03T02:48:41;3.43;;;2.50;;
11699;SDS011;5906;51.660;6.674;2022-09-03T02:51:08;2.77;;;2.53;;
11699;SDS011;5906;51.660;6.674;2022-09-03T02:53:40;2.83;;;2.53;;
11699;SDS011;5906;51.660;6.674;2022-09-03T02:56:07;2.87;;;2.60;;
11699;SDS011;5906;51.660;6.674;2022-09-03T02:58:34;2.60;;;2.40;;
11699;SDS011;5906;51.660;6.674;2022-09-03T03:01:01;3.67;;;3.10;;
11699;SDS011;5906;51.660;6.674;2022-09-03T03:03:29;2.87;;;2.50;;
11699;SDS011;5906;51.660;6.674;2022-09-03T03:05:57;4.63;;;2.80;;
11699;SDS011;5906;51.660;6.674;2022-09-03T03:08:27;3.23;;;2.90;;
11699;SDS011;5906;51.660;6.674;2022-09-03T03:10:56;5.07;;;2.80;;
11699;SDS011;5906;51.660;6.674;2022-09-03T03:13:26;3.37;;;2.63;;
11699;SDS011;5906;51.660;6.674;2022-09-03T03:15:57;3.97;;;2.77;;
11699;SDS011;5906;51.660;6.674;2022-09-03T03:18:25;4.93;;;2.80;;
11699;SDS011;5906;51.660;6.674;2022-09-03T03:20:53;5.70;;;3.00;;
11699;SDS011;5906;51.660;6.674;2022-09-03T03:23:20;3.37;;;2.97;;
11699;SDS011;5906;51.660;6.674;2022-09-03T03:25:47;3.50;;;2.80;;
11699;SDS011;5906;51.660;6.674;2022-09-03T03:28:13;6.93;;;3.20;;
11699;SDS011;5906;51.660;6.674;2022-09-03T03:30:40;7.83;;;2.90;;
11699;SDS011;5906;51.660;6.674;2022-09-03T03:33:08;3.30;;;2.60;;
11699;SDS011;5906;51.660;6.674;2022-09-03T03:35:35;3.60;;;2.77;;
11699;SDS011;5906;51.660;6.674;2022-09-03T03:38:02;4.70;;;2.50;;
11699;SDS011;5906;51.660;6.674;2022-09-03T03:40:30;4.50;;;2.53;;
11699;SDS011;5906;51.660;6.674;2022-09-03T03:42:57;5.40;;;2.87;;
11699;SDS011;5906;51.660;6.674;2022-09-03T03:45:24;4.57;;;3.00;;
11699;SDS011;5906;51.660;6.674;2022-09-03T03:47:50;4.00;;;2.80;;
11699;SDS011;5906;51.660;6.674;2022-09-03T03:50:18;7.40;;;2.87;;
11699;SDS011;5906;51.660;6.674;2022-09-03T03:52:45;5.63;;;2.80;;
11699;SDS011;5906;51.660;6.674;2022-09-03T03:55:13;4.30;;;2.97;;
11699;SDS011;5906;51.660;6.674;2022-09-03T03:57:41;4.57;;;2.90;;
11699;SDS011;5906;51.660;6.674;2022-09-03T04:00:08;5.97;;;2.70;;
11699;SDS011;5906;51.660;6.674;2022-09-03T04:02:35;6.73;;;3.17;;
11699;SDS011;5906;51.660;6.674;2022-09-03T04:05:04;2.53;;;2.33;;
11699;SDS011;5906;51.660;6.674;2022-09-03T04:07:32;3.40;;;2.80;;
11699;SDS011;5906;51.660;6.674;2022-09-03T04:09:59;3.40;;;2.90;;
11699;SDS011;5906;51.660;6.674;2022-09-03T04:12:26;3.13;;;2.83;;
11699;SDS011;5906;51.660;6.674;2022-09-03T04:14:53;3.03;;;2.73;;
11699;SDS011;5906;51.660;6.674;2022-09-03T04:17:20;3.43;;;3.00;;
11699;SDS011;5906;51.660;6.674;2022-09-03T04:19:50;7.00;;;2.80;;
11699;SDS011;5906;51.660;6.674;2022-09-03T04:22:17;3.80;;;2.73;;
11699;SDS011;5906;51.660;6.674;2022-09-03T04:24:45;3.80;;;3.10;;
11699;SDS011;5906;51.660;6.674;2022-09-03T04:27:12;4.50;;;3.00;;
11699;SDS011;5906;51.660;6.674;2022-09-03T04:29:38;3.50;;;2.63;;
11699;SDS011;5906;51.660;6.674;2022-09-03T04:32:05;3.37;;;2.50;;
11699;SDS011;5906;51.660;6.674;2022-09-03T04:34:50;2.97;;;2.67;;
11699;SDS011;5906;51.660;6.674;2022-09-03T04:37:17;2.83;;;2.40;;
11699;SDS011;5906;51.660;6.674;2022-09-03T04:39:45;3.20;;;2.90;;
11699;SDS011;5906;51.660;6.674;2022-09-03T04:42:12;5.20;;;2.70;;
11699;SDS011;5906;51.660;6.674;2022-09-03T04:44:39;3.37;;;2.97;;
11699;SDS011;5906;51.660;6.674;2022-09-03T04:47:06;4.07;;;2.77;;
11699;SDS011;5906;51.660;6.674;2022-09-03T04:49:33;3.33;;;2.77;;
11699;SDS011;5906;51.660;6.674;2022-09-03T04:52:00;4.77;;;2.47;;
11699;SDS011;5906;51.660;6.674;2022-09-03T04:54:28;5.47;;;2.47;;
11699;SDS011;5906;51.660;6.674;2022-09-03T04:56:55;3.60;;;2.40;;
11699;SDS011;5906;51.660;6.674;2022-09-03T04:59:21;3.03;;;2.70;;
11699;SDS011;5906;51.660;6.674;2022-09-03T05:01:48;3.60;;;3.00;;
11699;SDS011;5906;51.660;6.674;2022-09-03T05:04:17;3.20;;;2.43;;
11699;SDS011;5906;51.660;6.674;2022-09-03T05:06:45;4.27;;;2.63;;
11699;SDS011;5906;51.660;6.674;2022-09-03T05:09:11;3.00;;;2.70;;
11699;SDS011;5906;51.660;6.674;2022-09-03T05:11:38;2.70;;;2.50;;
11699;SDS011;5906;51.660;6.674;2022-09-03T05:14:05;3.50;;;2.50;;
11699;SDS011;5906;51.660;6.674;2022-09-03T05:16:32;4.10;;;3.10;;
11699;SDS011;5906;51.660;6.674;2022-09-03T05:18:59;2.53;;;2.33;;
11699;SDS011;5906;51.660;6.674;2022-09-03T05:21:26;3.53;;;2.57;;
11699;SDS011;5906;51.660;6.674;2022-09-03T05:23:54;2.57;;;2.30;;
11699;SDS011;5906;51.660;6.674;2022-09-03T05:26:25;2.70;;;2.20;;
11699;SDS011;5906;51.660;6.674;2022-09-03T05:28:54;6.83;;;2.53;;
11699;SDS011;5906;51.660;6.674;2022-09-03T05:31:23;3.57;;;2.40;;
11699;SDS011;5906;51.660;6.674;2022-09-03T05:33:53;3.67;;;2.53;;
11699;SDS011;5906;51.660;6.674;2022-09-03T05:36:24;4.10;;;2.70;;
11699;SDS011;5906;51.660;6.674;2022-09-03T05:38:53;2.97;;;2.67;;
11699;SDS011;5906;51.660;6.674;2022-09-03T05:41:20;4.23;;;2.67;;
11699;SDS011;5906;51.660;6.674;2022-09-03T05:43:48;3.00;;;2.53;;
11699;SDS011;5906;51.660;6.674;2022-09-03T05:46:28;2.50;;;2.30;;
11699;SDS011;5906;51.660;6.674;2022-09-03T05:48:58;2.83;;;2.37;;
11699;SDS011;5906;51.660;6.674;2022-09-03T05:51:29;5.40;;;2.50;;
11699;SDS011;5906;51.660;6.674;2022-09-03T05:53:57;3.23;;;2.33;;
11699;SDS011;5906;51.660;6.674;2022-09-03T05:56:25;4.20;;;2.90;;
11699;SDS011;5906;51.660;6.674;2022-09-03T05:58:54;2.83;;;2.53;;
11699;SDS011;5906;51.660;6.674;2022-09-03T06:01:24;3.97;;;2.20;;
11699;SDS011;5906;51.660;6.674;2022-09-03T06:03:54;6.10;;;2.73;;
11699;SDS011;5906;51.660;6.674;2022-09-03T06:06:21;2.73;;;2.53;;
11699;SDS011;5906;51.660;6.674;2022-09-03T06:08:56;3.50;;;2.77;;
11699;SDS011;5906;51.660;6.674;2022-09-03T06:11:24;2.77;;;2.47;;
11699;SDS011;5906;51.660;6.674;2022-09-03T06:13:54;2.63;;;2.23;;
11699;SDS011;5906;51.660;6.674;2022-09-03T06:16:22;2.80;;;2.43;;
11699;SDS011;5906;51.660;6.674;2022-09-03T06:18:57;2.40;;;2.20;;
11699;SDS011;5906;51.660;6.674;2022-09-03T06:21:24;2.70;;;2.50;;
11699;SDS011;5906;51.660;6.674;2022-09-03T06:23:52;2.87;;;2.43;;
11699;SDS011;5906;51.660;6.674;2022-09-03T06:26:25;2.90;;;2.50;;
11699;SDS011;5906;51.660;6.674;2022-09-03T06:28:55;2.50;;;2.30;;
11699;SDS011;5906;51.660;6.674;2022-09-03T06:31:22;4.97;;;2.53;;
11699;SDS011;5906;51.660;6.674;2022-09-03T06:33:50;2.67;;;2.47;;
11699;SDS011;5906;51.660;6.674;2022-09-03T06:36:20;5.03;;;2.50;;
11699;SDS011;5906;51.660;6.674;2022-09-03T06:38:50;4.20;;;2.50;;
11699;SDS011;5906;51.660;6.674;2022-09-03T06:41:19;2.60;;;2.10;;
11699;SDS011;5906;51.660;6.674;2022-09-03T06:43:52;3.10;;;2.37;;
11699;SDS011;5906;51.660;6.674;2022-09-03T06:46:28;4.97;;;2.57;;
11699;SDS011;5906;51.660;6.674;2022-09-03T06:48:56;2.40;;;2.20;;
11699;SDS011;5906;51.660;6.674;2022-09-03T06:51:27;3.60;;;2.20;;
11699;SDS011;5906;51.660;6.674;2022-09-03T06:54:02;4.60;;;2.27;;
11699;SDS011;5906;51.660;6.674;2022-09-03T06:56:31;2.87;;;2.57;;
11699;SDS011;5906;51.660;6.674;2022-09-03T06:59:09;3.27;;;2.27;;
11699;SDS011;5906;51.660;6.674;2022-09-03T07:01:40;2.20;;;2.00;;
11699;SDS011;5906;51.660;6.674;2022-09-03T07:04:11;5.73;;;2.63;;
11699;SDS011;5906;51.660;6.674;2022-09-03T07:06:41;6.10;;;2.30;;
11699;SDS011;5906;51.660;6.674;2022-09-03T07:09:09;4.63;;;2.40;;
11699;SDS011;5906;51.660;6.674;2022-09-03T07:11:37;2.27;;;2.07;;
11699;SDS011;5906;51.660;6.674;2022-09-03T07:14:12;4.10;;;2.43;;
11699;SDS011;5906;51.660;6.674;2022-09-03T07:16:39;3.30;;;1.90;;
11699;SDS011;5906;51.660;6.674;2022-09-03T07:19:09;2.53;;;2.20;;
11699;SDS011;5906;51.660;6.674;2022-09-03T07:21:38;2.50;;;2.20;;
11699;SDS011;5906;51.660;6.674;2022-09-03T07:24:15;2.77;;;2.10;;
11699;SDS011;5906;51.660;6.674;2022-09-03T07:26:42;2.57;;;2.27;;
11699;SDS011;5906;51.660;6.674;2022-09-03T07:29:12;3.60;;;2.03;;
11699;SDS011;5906;51.660;6.674;2022-09-03T07:31:41;6.33;;;2.60;;
11699;SDS011;5906;51.660;6.674;2022-09-03T07:34:09;2.20;;;2.00;;
11699;SDS011;5906;51.660;6.674;2022-09-03T07:36:39;3.50;;;2.00;;
11699;SDS011;5906;51.660;6.674;2022-09-03T07:39:13;4.00;;;2.10;;
11699;SDS011;5906;51.660;6.674;2022-09-03T07:41:41;8.03;;;1.90;;
11699;SDS011;5906;51.660;6.674;2022-09-03T07:44:11;6.67;;;2.37;;
11699;SDS011;5906;51.660;6.674;2022-09-03T07:46:40;4.30;;;2.20;;
11699;SDS011;5906;51.660;6.674;2022-09-03T07:49:08;3.97;;;2.27;;
11699;SDS011;5906;51.660;6.674;2022-09-03T07:51:36;3.90;;;2.20;;
11699;SDS011;5906;51.660;6.674;2022-09-03T07:54:04;3.67;;;2.07;;
11699;SDS011;5906;51.660;6.674;2022-09-03T07:56:33;2.40;;;2.20;;
11699;SDS011;5906;51.660;6.674;2022-09-03T07:59:01;7.80;;;2.13;;
11699;SDS011;5906;51.660;6.674;2022-09-03T08:01:29;2.97;;;2.20;;
11699;SDS011;5906;51.660;6.674;2022-09-03T08:03:58;3.57;;;2.00;;
11699;SDS011;5906;51.660;6.674;2022-09-03T08:06:26;3.00;;;1.70;;
11699;SDS011;5906;51.660;6.674;2022-09-03T08:08:55;4.83;;;2.30;;
11699;SDS011;5906;51.660;6.674;2022-09-03T08:11:29;2.70;;;2.13;;
11699;SDS011;5906;51.660;6.674;2022-09-03T08:14:00;4.03;;;2.30;;
11699;SDS011;5906;51.660;6.674;2022-09-03T08:16:35;3.07;;;2.23;;
11699;SDS011;5906;51.660;6.674;2022-09-03T08:19:05;4.47;;;1.90;;
11699;SDS011;5906;51.660;6.674;2022-09-03T08:21:32;2.27;;;2.07;;
11699;SDS011;5906;51.660;6.674;2022-09-03T08:23:59;3.27;;;2.23;;
11699;SDS011;5906;51.660;6.674;2022-09-03T08:26:29;2.77;;;1.87;;
11699;SDS011;5906;51.660;6.674;2022-09-03T08:28:58;6.50;;;3.00;;
11699;SDS011;5906;51.660;6.674;2022-09-03T08:31:25;3.00;;;2.30;;
11699;SDS011;5906;51.660;6.674;2022-09-03T08:33:54;2.40;;;1.87;;
11699;SDS011;5906;51.660;6.674;2022-09-03T08:38:51;3.57;;;1.93;;
11699;SDS011;5906;51.660;6.674;2022-09-03T08:41:27;2.13;;;1.70;;
11699;SDS011;5906;51.660;6.674;2022-09-03T08:46:53;1.80;;;1.70;;
11699;SDS011;5906;51.660;6.674;2022-09-03T08:49:39;4.40;;;1.87;;
11699;SDS011;5906;51.660;6.674;2022-09-03T08:55:27;3.53;;;1.70;;
11699;SDS011;5906;51.660;6.674;2022-09-03T08:58:10;10.13;;;2.50;;
11699;SDS011;5906;51.660;6.674;2022-09-03T09:00:49;4.83;;;1.83;;
11699;SDS011;5906;51.660;6.674;2022-09-03T09:06:32;3.50;;;2.20;;
11699;SDS011;5906;51.660;6.674;2022-09-03T09:09:36;2.50;;;1.80;;
11699;SDS011;5906;51.660;6.674;2022-09-03T09:12:24;4.97;;;1.90;;
11699;SDS011;5906;51.660;6.674;2022-09-03T09:20:32;3.23;;;1.70;;
11699;SDS011;5906;51.660;6.674;2022-09-03T09:23:12;2.03;;;1.60;;
11699;SDS011;5906;51.660;6.674;2022-09-03T09:25:46;3.83;;;2.23;;
11699;SDS011;5906;51.660;6.674;2022-09-03T09:28:22;2.40;;;1.93;;
11699;SDS011;5906;51.660;6.674;2022-09-03T09:30:52;2.00;;;1.57;;
11699;SDS011;5906;51.660;6.674;2022-09-03T09:33:21;1.63;;;1.53;;
11699;SDS011;5906;51.660;6.674;2022-09-03T09:35:48;5.13;;;1.90;;
11699;SDS011;5906;51.660;6.674;2022-09-03T09:38:25;1.80;;;1.70;;
11699;SDS011;5906;51.660;6.674;2022-09-03T09:41:06;4.37;;;1.50;;
11699;SDS011;5906;51.660;6.674;2022-09-03T09:43:45;2.60;;;1.60;;
11699;SDS011;5906;51.660;6.674;2022-09-03T09:46:19;2.60;;;1.83;;
11699;SDS011;5906;51.660;6.674;2022-09-03T09:49:21;3.50;;;2.00;;
11699;SDS011;5906;51.660;6.674;2022-09-03T09:51:59;2.00;;;1.77;;
11699;SDS011;5906;51.660;6.674;2022-09-03T09:54:33;2.00;;;1.73;;
11699;SDS011;5906;51.660;6.674;2022-09-03T09:57:02;1.67;;;1.57;;
11699;SDS011;5906;51.660;6.674;2022-09-03T09:59:32;7.13;;;1.60;;
11699;SDS011;5906;51.660;6.674;2022-09-03T10:02:08;2.70;;;1.97;;
11699;SDS011;5906;51.660;6.674;2022-09-03T10:04:59;2.27;;;1.80;;
11699;SDS011;5906;51.660;6.674;2022-09-03T10:07:38;2.03;;;1.67;;
11699;SDS011;5906;51.660;6.674;2022-09-03T10:12:55;2.50;;;1.90;;
11699;SDS011;5906;51.660;6.674;2022-09-03T10:18:15;2.00;;;1.80;;
11699;SDS011;5906;51.660;6.674;2022-09-03T10:21:15;3.57;;;1.97;;
11699;SDS011;5906;51.660;6.674;2022-09-03T10:26:41;2.53;;;1.87;;
11699;SDS011;5906;51.660;6.674;2022-09-03T10:29:11;3.83;;;1.93;;
11699;SDS011;5906;51.660;6.674;2022-09-03T10:31:58;2.23;;;2.03;;
11699;SDS011;5906;51.660;6.674;2022-09-03T10:40:57;10.80;;;2.03;;
11699;SDS011;5906;51.660;6.674;2022-09-03T10:46:27;3.83;;;2.17;;
11699;SDS011;5906;51.660;6.674;2022-09-03T10:51:53;4.50;;;1.80;;
11699;SDS011;5906;51.660;6.674;2022-09-03T10:54:37;4.20;;;1.83;;
11699;SDS011;5906;51.660;6.674;2022-09-03T10:57:20;2.67;;;1.63;;
11699;SDS011;5906;51.660;6.674;2022-09-03T11:00:09;4.17;;;1.70;;
11699;SDS011;5906;51.660;6.674;2022-09-03T11:02:43;3.37;;;2.17;;
11699;SDS011;5906;51.660;6.674;2022-09-03T11:05:31;4.00;;;2.00;;
11699;SDS011;5906;51.660;6.674;2022-09-03T11:08:11;2.50;;;1.83;;
11699;SDS011;5906;51.660;6.674;2022-09-03T11:10:53;3.67;;;2.00;;
11699;SDS011;5906;51.660;6.674;2022-09-03T11:13:23;2.90;;;1.80;;
11699;SDS011;5906;51.660;6.674;2022-09-03T11:18:48;3.20;;;2.00;;
11699;SDS011;5906;51.660;6.674;2022-09-03T11:21:19;2.30;;;2.00;;
11699;SDS011;5906;51.660;6.674;2022-09-03T11:24:02;4.10;;;2.10;;
11699;SDS011;5906;51.660;6.674;2022-09-03T11:26:34;4.80;;;2.20;;
11699;SDS011;5906;51.660;6.674;2022-09-03T11:32:00;3.20;;;1.90;;
11699;SDS011;5906;51.660;6.674;2022-09-03T11:34:47;6.20;;;1.80;;
11699;SDS011;5906;51.660;6.674;2022-09-03T11:37:20;4.50;;;2.00;;
11699;SDS011;5906;51.660;6.674;2022-09-03T11:39:57;5.93;;;2.47;;
11699;SDS011;5906;51.660;6.674;2022-09-03T11:42:45;2.10;;;1.90;;
11699;SDS011;5906;51.660;6.674;2022-09-03T11:45:18;2.30;;;1.90;;
11699;SDS011;5906;51.660;6.674;2022-09-03T11:47:45;4.00;;;1.80;;
11699;SDS011;5906;51.660;6.674;2022-09-03T11:50:20;9.03;;;2.40;;
11699;SDS011;5906;51.660;6.674;2022-09-03T11:58:24;2.37;;;2.17;;
11699;SDS011;5906;51.660;6.674;2022-09-03T12:01:03;2.90;;;2.07;;
11699;SDS011;5906;51.660;6.674;2022-09-03T12:03:45;2.70;;;1.90;;
11699;SDS011;5906;51.660;6.674;2022-09-03T12:11:53;3.30;;;2.00;;
11699;SDS011;5906;51.660;6.674;2022-09-03T12:14:32;3.70;;;2.00;;
11699;SDS011;5906;51.660;6.674;2022-09-03T12:20:09;5.50;;;2.20;;
11699;SDS011;5906;51.660;6.674;2022-09-03T12:22:38;3.73;;;2.00;;
11699;SDS011;5906;51.660;6.674;2022-09-03T12:25:11;2.17;;;1.97;;
11699;SDS011;5906;51.660;6.674;2022-09-03T12:27:40;2.77;;;2.20;;
11699;SDS011;5906;51.660;6.674;2022-09-03T12:30:14;2.80;;;2.00;;
11699;SDS011;5906;51.660;6.674;2022-09-03T12:32:44;2.50;;;2.13;;
11699;SDS011;5906;51.660;6.674;2022-09-03T12:38:02;3.10;;;2.10;;
11699;SDS011;5906;51.660;6.674;2022-09-03T12:40:33;3.83;;;2.20;;
11699;SDS011;5906;51.660;6.674;2022-09-03T12:43:25;2.20;;;2.00;;
11699;SDS011;5906;51.660;6.674;2022-09-03T12:46:14;2.80;;;2.60;;
11699;SDS011;5906;51.660;6.674;2022-09-03T12:48:54;1.97;;;1.80;;
11699;SDS011;5906;51.660;6.674;2022-09-03T12:51:57;2.50;;;2.20;;
11699;SDS011;5906;51.660;6.674;2022-09-03T12:54:32;2.20;;;2.00;;
11699;SDS011;5906;51.660;6.674;2022-09-03T12:57:01;2.40;;;2.20;;
11699;SDS011;5906;51.660;6.674;2022-09-03T12:59:30;2.57;;;2.37;;
11699;SDS011;5906;51.660;6.674;2022-09-03T13:02:03;3.77;;;2.57;;
11699;SDS011;5906;51.660;6.674;2022-09-03T13:04:43;2.20;;;2.00;;
11699;SDS011;5906;51.660;6.674;2022-09-03T13:07:54;2.00;;;1.90;;
11699;SDS011;5906;51.660;6.674;2022-09-03T13:10:15;2.30;;;2.17;;
11699;SDS011;5906;51.660;6.674;2022-09-03T13:13:01;2.53;;;2.30;;
11699;SDS011;5906;51.660;6.674;2022-09-03T13:15:52;3.40;;;2.47;;
11699;SDS011;5906;51.660;6.674;2022-09-03T13:18:33;2.27;;;2.07;;
11699;SDS011;5906;51.660;6.674;2022-09-03T13:21:30;3.03;;;2.10;;
11699;SDS011;5906;51.660;6.674;2022-09-03T13:24:16;6.13;;;2.20;;
11699;SDS011;5906;51.660;6.674;2022-09-03T13:27:09;3.47;;;2.17;;
11699;SDS011;5906;51.660;6.674;2022-09-03T13:30:02;2.80;;;2.50;;
11699;SDS011;5906;51.660;6.674;2022-09-03T13:32:51;2.17;;;1.97;;
11699;SDS011;5906;51.660;6.674;2022-09-03T13:35:46;2.10;;;1.90;;
11699;SDS011;5906;51.660;6.674;2022-09-03T13:38:34;2.20;;;2.00;;
11699;SDS011;5906;51.660;6.674;2022-09-03T13:41:23;4.10;;;2.80;;
11699;SDS011;5906;51.660;6.674;2022-09-03T13:44:17;5.53;;;2.27;;
11699;SDS011;5906;51.660;6.674;2022-09-03T13:46:56;2.90;;;2.40;;
11699;SDS011;5906;51.660;6.674;2022-09-03T13:49:41;1.93;;;1.83;;
11699;SDS011;5906;51.660;6.674;2022-09-03T13:52:37;3.00;;;1.97;;
11699;SDS011;5906;51.660;6.674;2022-09-03T13:55:19;3.57;;;2.20;;
11699;SDS011;5906;51.660;6.674;2022-09-03T13:58:00;2.00;;;1.90;;
11699;SDS011;5906;51.660;6.674;2022-09-03T14:00:36;2.13;;;1.90;;
11699;SDS011;5906;51.660;6.674;2022-09-03T14:03:30;2.63;;;2.10;;
11699;SDS011;5906;51.660;6.674;2022-09-03T14:06:06;2.60;;;2.40;;
11699;SDS011;5906;51.660;6.674;2022-09-03T14:09:03;2.43;;;2.20;;
11699;SDS011;5906;51.660;6.674;2022-09-03T14:19:46;6.90;;;2.07;;
11699;SDS011;5906;51.660;6.674;2022-09-03T14:22:31;2.30;;;2.10;;
11699;SDS011;5906;51.660;6.674;2022-09-03T14:25:13;2.30;;;2.10;;
11699;SDS011;5906;51.660;6.674;2022-09-03T14:27:42;2.13;;;1.93;;
11699;SDS011;5906;51.660;6.674;2022-09-03T14:38:10;2.00;;;1.90;;
11699;SDS011;5906;51.660;6.674;2022-09-03T14:40:42;5.00;;;2.10;;
11699;SDS011;5906;51.660;6.674;2022-09-03T14:43:18;2.10;;;1.90;;
11699;SDS011;5906;51.660;6.674;2022-09-03T14:52:06;2.63;;;2.20;;
11699;SDS011;5906;51.660;6.674;2022-09-03T14:55:06;2.47;;;2.23;;
11699;SDS011;5906;51.660;6.674;2022-09-03T15:03:42;3.20;;;2.20;;
11699;SDS011;5906;51.660;6.674;2022-09-03T15:09:31;2.90;;;2.30;;
11699;SDS011;5906;51.660;6.674;2022-09-03T15:12:07;2.63;;;2.20;;
11699;SDS011;5906;51.660;6.674;2022-09-03T15:14:45;4.20;;;2.10;;
11699;SDS011;5906;51.660;6.674;2022-09-03T15:34:15;2.30;;;2.10;;
11699;SDS011;5906;51.660;6.674;2022-09-03T15:36:54;3.30;;;3.00;;
11699;SDS011;5906;51.660;6.674;2022-09-03T15:39:27;2.50;;;2.30;;
11699;SDS011;5906;51.660;6.674;2022-09-03T15:42:20;3.60;;;2.00;;
11699;SDS011;5906;51.660;6.674;2022-09-03T15:44:53;2.17;;;1.97;;
11699;SDS011;5906;51.660;6.674;2022-09-03T15:47:34;2.13;;;1.90;;
11699;SDS011;5906;51.660;6.674;2022-09-03T15:50:28;2.80;;;2.60;;
11699;SDS011;5906;51.660;6.674;2022-09-03T15:56:09;2.90;;;2.40;;
11699;SDS011;5906;51.660;6.674;2022-09-03T15:58:49;5.80;;;2.40;;
11699;SDS011;5906;51.660;6.674;2022-09-03T16:01:33;2.83;;;2.47;;
11699;SDS011;5906;51.660;6.674;2022-09-03T16:15:29;4.20;;;2.53;;
11699;SDS011;5906;51.660;6.674;2022-09-03T16:18:12;3.33;;;2.20;;
11699;SDS011;5906;51.660;6.674;2022-09-03T16:21:00;2.70;;;2.50;;
11699;SDS011;5906;51.660;6.674;2022-09-03T16:23:42;3.93;;;2.57;;
11699;SDS011;5906;51.660;6.674;2022-09-03T16:29:08;2.97;;;2.20;;
11699;SDS011;5906;51.660;6.674;2022-09-03T16:31:47;3.37;;;2.33;;
11699;SDS011;5906;51.660;6.674;2022-09-03T16:34:47;2.70;;;2.50;;
11699;SDS011;5906;51.660;6.674;2022-09-03T16:37:21;2.90;;;2.40;;
11699;SDS011;5906;51.660;6.674;2022-09-03T16:42:54;3.10;;;2.70;;
11699;SDS011;5906;51.660;6.674;2022-09-03T16:48:18;8.70;;;2.80;;
11699;SDS011;5906;51.660;6.674;2022-09-03T16:51:12;4.07;;;2.67;;
11699;SDS011;5906;51.660;6.674;2022-09-03T16:54:14;2.53;;;2.20;;
11699;SDS011;5906;51.660;6.674;2022-09-03T16:57:14;5.33;;;2.77;;
11699;SDS011;5906;51.660;6.674;2022-09-03T17:00:04;2.47;;;2.27;;
11699;SDS011;5906;51.660;6.674;2022-09-03T17:03:03;4.70;;;2.70;;
11699;SDS011;5906;51.660;6.674;2022-09-03T17:06:34;4.93;;;2.50;;
11699;SDS011;5906;51.660;6.674;2022-09-03T17:11:35;3.27;;;2.97;;
11699;SDS011;5906;51.660;6.674;2022-09-03T17:14:19;3.30;;;3.00;;
11699;SDS011;5906;51.660;6.674;2022-09-03T17:19:38;3.20;;;2.67;;
11699;SDS011;5906;51.660;6.674;2022-09-03T17:28:08;6.00;;;2.70;;
11699;SDS011;5906;51.660;6.674;2022-09-03T17:31:09;4.43;;;2.80;;
11699;SDS011;5906;51.660;6.674;2022-09-03T17:36:40;3.53;;;2.80;;
11699;SDS011;5906;51.660;6.674;2022-09-03T17:42:44;3.40;;;2.60;;
11699;SDS011;5906;51.660;6.674;2022-09-03T17:49:00;10.83;;;3.30;;
11699;SDS011;5906;51.660;6.674;2022-09-03T17:54:31;6.67;;;3.20;;
11699;SDS011;5906;51.660;6.674;2022-09-03T17:57:18;8.83;;;2.93;;
11699;SDS011;5906;51.660;6.674;2022-09-03T17:59:57;4.20;;;2.77;;
11699;SDS011;5906;51.660;6.674;2022-09-03T18:02:34;6.60;;;3.10;;
11699;SDS011;5906;51.660;6.674;2022-09-03T18:05:17;4.50;;;3.50;;
11699;SDS011;5906;51.660;6.674;2022-09-03T18:08:04;3.00;;;2.60;;
11699;SDS011;5906;51.660;6.674;2022-09-03T18:10:49;4.60;;;3.40;;
11699;SDS011;5906;51.660;6.674;2022-09-03T18:16:31;6.60;;;3.17;;
11699;SDS011;5906;51.660;6.674;2022-09-03T18:19:01;12.83;;;3.00;;
11699;SDS011;5906;51.660;6.674;2022-09-03T18:21:44;12.40;;;3.20;;
11699;SDS011;5906;51.660;6.674;2022-09-03T18:24:33;4.13;;;2.93;;
11699;SDS011;5906;51.660;6.674;2022-09-03T18:30:27;5.70;;;3.20;;
11699;SDS011;5906;51.660;6.674;2022-09-03T18:33:12;6.17;;;2.87;;
11699;SDS011;5906;51.660;6.674;2022-09-03T18:35:59;3.97;;;2.93;;
11699;SDS011;5906;51.660;6.674;2022-09-03T18:38:45;3.50;;;3.20;;
11699;SDS011;5906;51.660;6.674;2022-09-03T18:44:44;3.27;;;2.93;;
11699;SDS011;5906;51.660;6.674;2022-09-03T18:47:51;4.30;;;2.73;;
11699;SDS011;5906;51.660;6.674;2022-09-03T18:54:11;4.83;;;3.33;;
11699;SDS011;5906;51.660;6.674;2022-09-03T18:57:37;3.83;;;2.60;;
11699;SDS011;5906;51.660;6.674;2022-09-03T19:00:26;4.20;;;2.83;;
11699;SDS011;5906;51.660;6.674;2022-09-03T19:03:34;3.23;;;2.60;;
11699;SDS011;5906;51.660;6.674;2022-09-03T19:06:33;5.70;;;3.17;;
11699;SDS011;5906;51.660;6.674;2022-09-03T19:09:47;3.13;;;2.57;;
11699;SDS011;5906;51.660;6.674;2022-09-03T19:12:39;3.40;;;2.80;;
11699;SDS011;5906;51.660;6.674;2022-09-03T19:15:57;4.30;;;2.83;;
11699;SDS011;5906;51.660;6.674;2022-09-03T19:21:54;4.40;;;3.00;;
11699;SDS011;5906;51.660;6.674;2022-09-03T19:24:43;8.30;;;2.77;;
11699;SDS011;5906;51.660;6.674;2022-09-03T19:27:41;3.30;;;2.90;;
11699;SDS011;5906;51.660;6.674;2022-09-03T19:40:33;4.10;;;3.00;;
11699;SDS011;5906;51.660;6.674;2022-09-03T19:43:53;3.63;;;3.20;;
11699;SDS011;5906;51.660;6.674;2022-09-03T19:46:46;5.63;;;3.00;;
11699;SDS011;5906;51.660;6.674;2022-09-03T19:52:57;3.60;;;3.30;;
11699;SDS011;5906;51.660;6.674;2022-09-03T19:55:57;3.47;;;2.97;;